createdAt,value
2018-11-13T00:01:57.120Z,82.62
2018-11-13T00:04:24.495Z,82.17
2018-11-13T00:06:52.066Z,82.18
2018-11-13T00:09:19.501Z,83.10
2018-11-13T00:11:46.851Z,82.98
2018-11-13T00:14:14.161Z,82.80
2018-11-13T00:16:41.385Z,82.79
2018-11-13T00:19:09.655Z,82.62
2018-11-13T00:21:37.698Z,82.19
2018-11-13T00:24:05.075Z,82.24
2018-11-13T00:26:32.413Z,82.45
2018-11-13T00:28:59.662Z,82.51
2018-11-13T00:31:26.839Z,83.27
2018-11-13T00:33:53.987Z,82.77
2018-11-13T00:36:21.548Z,82.77
2018-11-13T00:38:48.957Z,82.11
2018-11-13T00:41:16.212Z,82.40
2018-11-13T00:43:43.433Z,82.52
2018-11-13T00:46:10.801Z,83.13
2018-11-13T00:48:38.018Z,83.26
2018-11-13T00:51:05.247Z,82.73
2018-11-13T00:53:32.574Z,82.86
2018-11-13T00:55:59.783Z,82.95
2018-11-13T00:58:27.025Z,83.28
2018-11-13T01:00:54.754Z,83.10
2018-11-13T01:03:21.530Z,83.47
2018-11-13T01:05:48.703Z,83.61
2018-11-13T01:08:16.161Z,83.51
2018-11-13T01:10:43.567Z,82.91
2018-11-13T01:13:11.006Z,83.95
2018-11-13T01:15:38.265Z,84.20
2018-11-13T01:18:05.732Z,84.61
2018-11-13T01:20:32.891Z,84.24
2018-11-13T01:23:00.178Z,83.74
2018-11-13T01:25:27.490Z,82.57
2018-11-13T01:27:54.729Z,82.76
2018-11-13T01:30:22.129Z,82.47
2018-11-13T01:32:49.439Z,82.36
2018-11-13T01:35:17.798Z,82.56
2018-11-13T01:37:45.211Z,82.65
2018-11-13T01:40:13.840Z,83.65
2018-11-13T01:42:42.390Z,82.90
2018-11-13T01:45:10.915Z,83.32
2018-11-13T01:47:38.216Z,82.74
2018-11-13T01:50:05.525Z,83.01
2018-11-13T01:52:33.303Z,83.12
2018-11-13T01:55:00.405Z,82.53
2018-11-13T01:57:27.852Z,82.39
2018-11-13T01:59:55.089Z,82.21
2018-11-13T02:02:22.349Z,82.22
2018-11-13T02:04:49.770Z,82.20
2018-11-13T02:07:17.129Z,82.67
2018-11-13T02:09:44.457Z,82.25
2018-11-13T02:12:11.654Z,82.47
2018-11-13T02:14:38.918Z,82.90
2018-11-13T02:17:06.447Z,82.24
2018-11-13T02:19:33.820Z,83.02
2018-11-13T02:22:01.188Z,82.89
2018-11-13T02:24:28.607Z,82.23
2018-11-13T02:26:55.988Z,82.51
2018-11-13T02:29:23.197Z,83.23
2018-11-13T02:31:50.579Z,82.43
2018-11-13T02:34:17.746Z,82.10
2018-11-13T02:36:45.084Z,82.65
2018-11-13T02:39:12.353Z,82.46
2018-11-13T02:41:40.058Z,82.84
2018-11-13T02:44:07.790Z,82.46
2018-11-13T02:46:35.015Z,82.59
2018-11-13T02:49:02.185Z,81.73
2018-11-13T02:51:29.555Z,82.18
2018-11-13T02:53:56.969Z,82.35
2018-11-13T02:56:24.211Z,81.35
2018-11-13T02:58:51.633Z,81.44
2018-11-13T03:01:19.038Z,81.96
2018-11-13T03:03:46.274Z,82.04
2018-11-13T03:06:13.751Z,81.98
2018-11-13T03:08:41.126Z,82.12
2018-11-13T03:11:08.446Z,82.16
2018-11-13T03:13:35.755Z,82.22
2018-11-13T03:16:03.232Z,82.02
2018-11-13T03:18:30.476Z,82.00
2018-11-13T03:20:58.760Z,82.48
2018-11-13T03:23:26.028Z,81.91
2018-11-13T03:25:53.216Z,81.62
2018-11-13T03:28:20.533Z,82.43
2018-11-13T03:30:47.802Z,82.35
2018-11-13T03:33:15.071Z,82.32
2018-11-13T03:35:42.533Z,81.73
2018-11-13T03:38:10.254Z,82.29
2018-11-13T03:40:37.475Z,82.39
2018-11-13T03:43:04.886Z,83.54
2018-11-13T03:45:32.270Z,82.86
2018-11-13T03:47:59.598Z,82.42
2018-11-13T03:50:26.863Z,83.04
2018-11-13T03:52:54.166Z,82.85
2018-11-13T03:55:21.514Z,82.35
2018-11-13T03:57:49.578Z,82.08
2018-11-13T04:00:18.190Z,82.69
2018-11-13T04:02:45.613Z,82.57
2018-11-13T04:05:14.086Z,82.19
2018-11-13T04:07:42.785Z,82.70
2018-11-13T04:10:11.467Z,83.10
2018-11-13T04:12:39.258Z,83.40
2018-11-13T04:15:07.642Z,82.28
2018-11-13T04:17:35.569Z,82.19
2018-11-13T04:20:02.861Z,81.68
2018-11-13T04:22:31.105Z,81.51
2018-11-13T04:24:58.744Z,81.03
2018-11-13T04:27:26.501Z,81.36
2018-11-13T04:29:53.757Z,80.92
2018-11-13T04:32:21.048Z,81.27
2018-11-13T04:34:48.442Z,81.24
2018-11-13T04:37:15.722Z,81.37
2018-11-13T04:39:43.079Z,81.23
2018-11-13T04:42:10.471Z,80.87
2018-11-13T04:44:37.735Z,81.41
2018-11-13T04:47:05.367Z,81.45
2018-11-13T04:49:32.958Z,81.68
2018-11-13T04:52:00.168Z,80.99
2018-11-13T04:54:27.508Z,81.56
2018-11-13T04:56:54.970Z,81.42
2018-11-13T04:59:22.253Z,81.63
2018-11-13T05:01:49.998Z,81.63
2018-11-13T05:04:17.246Z,81.53
2018-11-13T05:06:44.562Z,81.93
2018-11-13T05:09:11.857Z,81.60
2018-11-13T05:11:39.056Z,82.09
2018-11-13T05:14:06.498Z,82.13
2018-11-13T05:16:33.745Z,81.98
2018-11-13T05:19:00.911Z,81.52
2018-11-13T05:21:28.130Z,80.98
2018-11-13T05:23:55.373Z,80.71
2018-11-13T05:26:22.821Z,81.75
2018-11-13T05:28:50.289Z,81.31
2018-11-13T05:31:17.850Z,81.80
2018-11-13T05:33:45.138Z,82.00
2018-11-13T05:36:12.391Z,81.55
2018-11-13T05:38:39.609Z,81.25
2018-11-13T05:41:06.737Z,81.23
2018-11-13T05:43:33.933Z,81.39
2018-11-13T05:46:01.291Z,80.85
2018-11-13T05:48:28.514Z,80.46
2018-11-13T05:50:55.708Z,80.36
2018-11-13T05:53:22.969Z,80.62
2018-11-13T05:55:50.259Z,81.81
2018-11-13T05:58:17.581Z,81.77
2018-11-13T06:00:44.882Z,81.52
2018-11-13T06:03:12.256Z,81.91
2018-11-13T06:05:40.454Z,82.46
2018-11-13T06:08:07.864Z,82.81
2018-11-13T06:10:35.225Z,82.48
2018-11-13T06:13:02.418Z,81.38
2018-11-13T06:15:29.611Z,81.81
2018-11-13T06:17:57.161Z,81.42
2018-11-13T06:20:24.408Z,81.72
2018-11-13T06:22:51.622Z,81.40
2018-11-13T06:25:18.782Z,80.63
2018-11-13T06:27:47.114Z,80.23
2018-11-13T06:30:17.901Z,81.15
2018-11-13T06:32:45.817Z,81.40
2018-11-13T06:35:13.096Z,82.11
2018-11-13T06:37:40.418Z,81.04
2018-11-13T06:40:08.736Z,82.03
2018-11-13T06:42:36.192Z,82.03
2018-11-13T06:45:03.599Z,81.97
2018-11-13T06:47:30.966Z,82.23
2018-11-13T06:49:58.314Z,82.11
2018-11-13T06:52:26.149Z,81.46
2018-11-13T06:55:06.524Z,81.93
2018-11-13T06:57:34.067Z,80.81
2018-11-13T07:00:01.777Z,80.70
2018-11-13T07:02:28.986Z,80.28
2018-11-13T07:04:56.890Z,81.00
2018-11-13T07:07:24.202Z,81.91
2018-11-13T07:09:52.480Z,81.45
2018-11-13T07:12:19.768Z,81.60
2018-11-13T07:14:47.184Z,82.05
2018-11-13T07:17:14.531Z,81.43
2018-11-13T07:19:42.550Z,81.47
2018-11-13T07:22:09.885Z,80.55
2018-11-13T07:24:37.528Z,80.70
2018-11-13T07:27:05.108Z,80.19
2018-11-13T07:29:32.568Z,79.80
2018-11-13T07:32:00.049Z,79.71
2018-11-13T07:34:27.707Z,79.93
2018-11-13T07:36:55.383Z,79.94
2018-11-13T07:39:23.443Z,80.28
2018-11-13T07:41:50.674Z,80.06
2018-11-13T07:44:18.016Z,80.33
2018-11-13T07:46:45.570Z,79.72
2018-11-13T07:49:12.758Z,79.84
2018-11-13T07:51:40.096Z,79.76
2018-11-13T07:54:07.565Z,79.41
2018-11-13T07:56:35.179Z,79.41
2018-11-13T07:59:02.500Z,79.79
2018-11-13T08:01:30.747Z,79.44
2018-11-13T08:03:58.085Z,79.07
2018-11-13T08:06:25.458Z,80.06
2018-11-13T08:08:53.014Z,79.26
2018-11-13T08:11:20.981Z,80.18
2018-11-13T08:13:48.228Z,80.77
2018-11-13T08:16:15.694Z,80.95
2018-11-13T08:18:43.235Z,80.15
2018-11-13T08:21:11.807Z,80.79
2018-11-13T08:23:39.519Z,80.67
2018-11-13T08:26:07.389Z,80.19
2018-11-13T08:28:35.282Z,79.82
2018-11-13T08:31:03.505Z,80.56
2018-11-13T08:33:33.754Z,79.98
2018-11-13T08:36:01.361Z,80.10
2018-11-13T08:38:28.957Z,79.57
2018-11-13T08:40:56.346Z,79.29
2018-11-13T08:43:24.483Z,79.28
2018-11-13T08:45:51.717Z,79.34
2018-11-13T08:48:19.023Z,79.20
2018-11-13T08:50:46.377Z,78.74
2018-11-13T08:53:13.881Z,77.59
2018-11-13T08:55:41.218Z,77.47
2018-11-13T08:58:08.391Z,77.72
2018-11-13T09:00:39.981Z,76.85
2018-11-13T09:03:07.383Z,77.42
2018-11-13T09:05:34.652Z,77.41
2018-11-13T09:08:01.905Z,77.27
2018-11-13T09:10:29.787Z,76.93
2018-11-13T09:12:57.087Z,76.75
2018-11-13T09:15:24.375Z,77.00
2018-11-13T09:17:52.959Z,77.31
2018-11-13T09:20:20.474Z,76.28
2018-11-13T09:22:47.820Z,75.49
2018-11-13T09:25:20.049Z,76.62
2018-11-13T09:27:47.861Z,75.81
2018-11-13T09:30:17.517Z,76.05
2018-11-13T09:32:45.511Z,76.09
2018-11-13T09:35:13.969Z,76.20
2018-11-13T09:37:41.288Z,75.49
2018-11-13T09:40:12.655Z,76.05
2018-11-13T09:42:41.073Z,75.67
2018-11-13T09:45:09.234Z,77.15
2018-11-13T09:47:36.670Z,76.06
2018-11-13T09:50:05.588Z,77.15
2018-11-13T09:52:33.033Z,76.53
2018-11-13T09:55:00.561Z,77.16
2018-11-13T09:57:27.849Z,76.97
2018-11-13T09:59:55.247Z,76.77
2018-11-13T10:02:23.405Z,77.30
2018-11-13T10:04:50.799Z,77.13
2018-11-13T10:07:17.377Z,77.52
2018-11-13T10:09:44.805Z,77.29
2018-11-13T10:12:12.075Z,77.58
2018-11-13T10:14:40.123Z,77.82
2018-11-13T10:17:08.067Z,77.85
2018-11-13T10:19:35.409Z,76.66
2018-11-13T10:22:02.930Z,77.24
2018-11-13T10:24:30.507Z,76.80
2018-11-13T10:26:57.759Z,75.88
2018-11-13T10:29:25.130Z,76.50
2018-11-13T10:31:52.375Z,76.33
2018-11-13T10:34:19.652Z,75.92
2018-11-13T10:36:47.176Z,76.62
2018-11-13T10:39:14.417Z,76.27
2018-11-13T10:41:41.636Z,75.59
2018-11-13T10:44:09.030Z,76.80
2018-11-13T10:46:39.997Z,76.56
2018-11-13T10:49:07.728Z,76.68
2018-11-13T10:51:35.189Z,75.67
2018-11-13T10:54:02.612Z,75.93
2018-11-13T10:56:30.179Z,75.42
2018-11-13T10:58:58.547Z,74.84
2018-11-13T11:01:32.300Z,75.81
2018-11-13T11:05:05.796Z,75.31
2018-11-13T11:07:33.318Z,75.77
2018-11-13T11:10:01.329Z,74.67
2018-11-13T11:12:29.662Z,75.06
2018-11-13T11:14:57.214Z,74.81
2018-11-13T11:17:24.532Z,73.92
2018-11-13T11:19:52.360Z,74.63
2018-11-13T11:22:20.773Z,74.34
2018-11-13T11:24:48.504Z,74.79
2018-11-13T11:27:16.095Z,74.40
2018-11-13T11:29:43.402Z,74.71
2018-11-13T11:32:10.741Z,75.06
2018-11-13T11:34:38.050Z,74.21
2018-11-13T11:37:05.261Z,73.69
2018-11-13T11:39:32.514Z,74.07
2018-11-13T11:41:59.706Z,73.19
2018-11-13T11:44:27.207Z,72.47
2018-11-13T11:46:54.393Z,72.43
2018-11-13T11:49:21.825Z,72.90
2018-11-13T11:51:49.098Z,72.06
2018-11-13T11:54:16.361Z,71.43
2018-11-13T11:56:43.771Z,71.01
2018-11-13T11:59:11.148Z,71.23
2018-11-13T12:01:38.631Z,71.13
2018-11-13T12:04:05.842Z,71.75
2018-11-13T12:06:33.693Z,71.33
2018-11-13T12:09:01.742Z,70.99
2018-11-13T12:11:29.167Z,70.66
2018-11-13T12:13:56.534Z,70.13
2018-11-13T12:16:23.982Z,70.49
2018-11-13T12:18:51.502Z,70.24
2018-11-13T12:21:18.824Z,69.70
2018-11-13T12:23:46.595Z,68.16
2018-11-13T12:26:15.195Z,68.06
2018-11-13T12:28:42.616Z,68.22
2018-11-13T12:31:09.731Z,67.84
2018-11-13T12:33:37.011Z,67.07
2018-11-13T12:36:04.331Z,65.86
2018-11-13T12:38:31.580Z,66.30
2018-11-13T12:40:59.021Z,66.62
2018-11-13T12:43:26.252Z,66.12
2018-11-13T12:45:53.692Z,66.74
2018-11-13T12:48:21.358Z,66.64
2018-11-13T12:50:54.525Z,66.71
2018-11-13T12:53:22.213Z,66.59
2018-11-13T12:55:50.042Z,66.38
2018-11-13T12:58:17.638Z,67.52
2018-11-13T13:00:44.888Z,67.72
2018-11-13T13:03:12.461Z,67.90
2018-11-13T13:05:40.041Z,68.24
2018-11-13T13:08:07.494Z,67.37
2018-11-13T13:10:34.881Z,67.02
2018-11-13T13:13:02.557Z,67.48
2018-11-13T13:15:29.893Z,67.86
2018-11-13T13:17:57.337Z,67.72
2018-11-13T13:20:26.370Z,67.17
2018-11-13T13:22:53.676Z,66.86
2018-11-13T13:25:22.345Z,66.62
2018-11-13T13:27:49.939Z,67.24
2018-11-13T13:30:20.434Z,67.73
2018-11-13T13:32:48.242Z,67.73
2018-11-13T13:35:37.015Z,67.35
2018-11-13T13:38:05.142Z,67.44
2018-11-13T13:40:32.471Z,66.82
2018-11-13T13:42:59.704Z,66.53
2018-11-13T13:45:27.463Z,66.24
2018-11-13T13:47:55.119Z,66.68
2018-11-13T13:50:22.507Z,66.68
2018-11-13T13:52:50.148Z,66.53
2018-11-13T13:55:18.328Z,66.74
2018-11-13T13:57:45.641Z,67.24
2018-11-13T14:00:13.181Z,67.05
2018-11-13T14:02:41.255Z,66.34
2018-11-13T14:05:08.934Z,66.41
2018-11-13T14:07:36.181Z,66.82
2018-11-13T14:10:03.578Z,66.09
2018-11-13T14:12:30.777Z,66.28
2018-11-13T14:14:58.320Z,66.47
2018-11-13T14:17:26.158Z,66.57
2018-11-13T14:19:53.803Z,66.18
2018-11-13T14:22:21.628Z,66.37
2018-11-13T14:24:49.084Z,66.52
2018-11-13T14:27:16.386Z,67.08
2018-11-13T14:29:43.911Z,66.53
2018-11-13T14:32:11.221Z,65.71
2018-11-13T14:34:38.624Z,66.17
2018-11-13T14:37:05.981Z,66.35
2018-11-13T14:39:33.393Z,66.45
2018-11-13T14:42:01.082Z,65.82
2018-11-13T14:44:28.411Z,65.48
2018-11-13T14:46:55.762Z,65.60
2018-11-13T14:49:23.193Z,65.68
2018-11-13T14:51:50.769Z,65.61
2018-11-13T14:54:19.604Z,65.14
2018-11-13T14:56:47.677Z,65.42
2018-11-13T14:59:14.987Z,65.48
2018-11-13T15:01:42.452Z,65.62
2018-11-13T15:04:09.634Z,65.75
2018-11-13T15:06:36.889Z,65.46
2018-11-13T15:09:06.298Z,64.78
2018-11-13T15:11:33.498Z,65.89
2018-11-13T15:14:00.702Z,65.44
2018-11-13T15:16:28.002Z,65.78
2018-11-13T15:18:55.362Z,65.56
2018-11-13T15:21:22.567Z,66.29
2018-11-13T15:23:49.817Z,65.75
2018-11-13T15:26:17.340Z,65.88
2018-11-13T15:28:44.658Z,66.18
2018-11-13T15:31:12.018Z,65.93
2018-11-13T15:33:39.341Z,65.73
2018-11-13T15:36:06.608Z,65.92
2018-11-13T15:38:34.094Z,65.98
2018-11-13T15:41:01.376Z,65.95
2018-11-13T15:43:28.549Z,65.96
2018-11-13T15:45:55.961Z,66.60
2018-11-13T15:48:23.466Z,66.45
2018-11-13T15:50:50.902Z,66.75
2018-11-13T15:53:20.832Z,66.67
2018-11-13T15:55:48.378Z,67.28
2018-11-13T15:58:15.912Z,66.88
2018-11-13T16:00:43.217Z,66.94
2018-11-13T16:03:20.282Z,67.17
2018-11-13T16:05:50.356Z,67.54
2018-11-13T16:08:17.544Z,68.39
2018-11-13T16:10:45.021Z,68.26
2018-11-13T16:13:12.584Z,68.79
2018-11-13T16:15:40.334Z,69.53
2018-11-13T16:18:10.293Z,68.97
2018-11-13T16:20:38.788Z,69.83
2018-11-13T16:23:06.483Z,69.59
2018-11-13T16:25:33.805Z,69.89
2018-11-13T16:28:01.196Z,69.97
2018-11-13T16:30:30.932Z,69.82
2018-11-13T16:32:58.230Z,69.86
2018-11-13T16:35:26.349Z,69.96
2018-11-13T16:37:54.903Z,72.36
2018-11-13T16:40:24.647Z,69.91
2018-11-13T16:42:52.042Z,71.67
2018-11-13T16:45:20.711Z,73.89
2018-11-13T16:47:48.184Z,78.77
2018-11-13T16:50:19.580Z,76.18
2018-11-13T16:52:46.965Z,69.11
2018-11-13T16:55:20.059Z,71.21
2018-11-13T16:57:47.534Z,73.52
2018-11-13T17:00:14.971Z,73.76
2018-11-13T17:02:42.307Z,76.42
2018-11-13T17:05:11.857Z,74.42
2018-11-13T17:07:39.557Z,74.62
2018-11-13T17:10:09.601Z,73.89
2018-11-13T17:12:36.844Z,73.07
2018-11-13T17:15:04.859Z,70.79
2018-11-13T17:17:33.280Z,71.06
2018-11-13T17:20:00.706Z,73.89
2018-11-13T17:22:27.986Z,73.76
2018-11-13T17:24:56.242Z,73.55
2018-11-13T17:27:23.795Z,69.09
2018-11-13T17:29:51.066Z,68.68
2018-11-13T17:32:18.854Z,68.28
2018-11-13T17:34:46.340Z,67.91
2018-11-13T17:37:14.411Z,70.38
2018-11-13T17:39:41.899Z,71.02
2018-11-13T17:42:09.325Z,69.99
2018-11-13T17:44:36.797Z,69.77
2018-11-13T17:47:04.955Z,70.17
2018-11-13T17:49:32.560Z,71.65
2018-11-13T17:52:00.105Z,70.96
2018-11-13T17:54:27.495Z,71.33
2018-11-13T17:56:55.030Z,71.35
2018-11-13T17:59:22.513Z,73.91
2018-11-13T18:01:49.944Z,76.54
2018-11-13T18:04:17.596Z,74.01
2018-11-13T18:06:44.955Z,81.41
2018-11-13T18:09:17.577Z,84.20
2018-11-13T18:11:45.441Z,83.92
2018-11-13T18:14:13.032Z,88.58
2018-11-13T18:16:40.615Z,79.92
2018-11-13T18:19:08.111Z,87.79
2018-11-13T18:21:35.553Z,84.32
2018-11-13T18:24:02.843Z,88.02
2018-11-13T18:26:30.223Z,85.24
2018-11-13T18:28:57.533Z,83.07
2018-11-13T18:31:25.605Z,83.83
2018-11-13T18:33:52.954Z,82.42
2018-11-13T18:36:20.679Z,78.98
2018-11-13T18:38:48.079Z,82.48
2018-11-13T18:43:54.217Z,66.87
2018-11-13T18:46:23.069Z,68.91
2018-11-13T18:48:55.673Z,70.02
2018-11-13T18:51:23.531Z,69.75
2018-11-13T18:53:51.210Z,70.78
2018-11-13T18:56:18.857Z,70.85
2018-11-13T18:58:46.319Z,71.16
2018-11-13T19:01:13.546Z,72.46
2018-11-13T19:03:40.955Z,71.95
2018-11-13T19:06:09.004Z,72.88
2018-11-13T19:08:36.399Z,73.19
2018-11-13T19:11:04.703Z,73.55
2018-11-13T19:13:34.746Z,73.63
2018-11-13T19:16:05.567Z,73.90
2018-11-13T19:18:32.918Z,74.04
2018-11-13T19:21:00.577Z,74.21
2018-11-13T19:23:27.882Z,74.18
2018-11-13T19:25:55.592Z,74.46
2018-11-13T19:28:23.091Z,74.04
2018-11-13T19:30:52.600Z,74.06
2018-11-13T19:33:20.364Z,74.42
2018-11-13T19:35:49.399Z,74.77
2018-11-13T19:38:16.810Z,75.36
2018-11-13T19:40:45.962Z,74.29
2018-11-13T19:43:14.568Z,73.37
2018-11-13T19:45:42.737Z,73.25
2018-11-13T19:48:10.352Z,74.23
2018-11-13T19:50:38.013Z,74.74
2018-11-13T19:58:02.110Z,74.66
2018-11-13T20:00:30.854Z,75.00
2018-11-13T20:02:59.937Z,75.40
2018-11-13T20:05:28.314Z,75.12
2018-11-13T20:07:55.537Z,75.10
2018-11-13T20:10:24.366Z,75.38
2018-11-13T20:12:52.653Z,75.59
2018-11-13T20:15:20.908Z,75.26
2018-11-13T20:17:48.290Z,75.35
2018-11-13T20:20:24.475Z,75.16
2018-11-13T20:22:52.710Z,75.37
2018-11-13T20:25:24.296Z,75.78
2018-11-13T20:27:51.577Z,75.70
2018-11-13T20:30:20.251Z,76.14
2018-11-13T20:32:47.526Z,76.05
2018-11-13T20:35:14.778Z,75.72
2018-11-13T20:37:43.569Z,75.28
2018-11-13T20:40:26.947Z,75.85
2018-11-13T20:42:55.854Z,76.22
2018-11-13T20:45:23.043Z,76.26
2018-11-13T20:47:50.279Z,76.74
2018-11-13T20:50:18.763Z,77.20
2018-11-13T20:52:46.393Z,77.11
2018-11-13T20:55:13.788Z,77.11
2018-11-13T20:57:41.096Z,77.10
2018-11-13T21:00:12.373Z,76.73
2018-11-13T21:02:39.731Z,76.41
2018-11-13T21:05:07.467Z,77.03
2018-11-13T21:07:35.293Z,77.42
2018-11-13T21:10:02.520Z,77.19
2018-11-13T21:12:30.650Z,76.88
2018-11-13T21:14:58.758Z,77.30
2018-11-13T21:17:26.373Z,76.94
2018-11-13T21:19:53.613Z,77.14
2018-11-13T21:22:20.877Z,76.96
2018-11-13T21:24:48.229Z,76.82
2018-11-13T21:27:15.599Z,77.03
2018-11-13T21:29:42.819Z,77.49
2018-11-13T21:32:10.091Z,76.98
2018-11-13T21:34:44.126Z,77.06
2018-11-13T21:37:11.432Z,76.99
2018-11-13T21:39:38.651Z,76.73
2018-11-13T21:42:05.874Z,77.02
2018-11-13T21:44:33.214Z,76.96
2018-11-13T21:47:00.686Z,77.30
2018-11-13T21:49:27.973Z,77.11
2018-11-13T21:51:55.230Z,77.45
2018-11-13T21:54:22.586Z,77.49
2018-11-13T21:56:49.908Z,77.67
2018-11-13T21:59:17.622Z,77.12
2018-11-13T22:01:45.192Z,76.92
2018-11-13T22:04:12.439Z,77.34
2018-11-13T22:06:39.661Z,76.95
2018-11-13T22:09:08.763Z,77.11
2018-11-13T22:11:36.456Z,76.46
2018-11-13T22:14:04.013Z,76.36
2018-11-13T22:16:31.263Z,76.10
2018-11-13T22:18:58.485Z,76.25
2018-11-13T22:21:25.822Z,76.75
2018-11-13T22:23:53.154Z,76.76
2018-11-13T22:26:20.704Z,77.75
2018-11-13T22:28:48.052Z,77.85
2018-11-13T22:31:15.433Z,78.41
2018-11-13T22:33:42.875Z,78.12
2018-11-13T22:36:10.201Z,77.36
2018-11-13T22:38:37.536Z,77.67
2018-11-13T22:41:05.459Z,76.69
2018-11-13T22:43:32.704Z,77.83
2018-11-13T22:45:59.897Z,77.39
2018-11-13T22:48:27.164Z,78.42
2018-11-13T22:50:54.497Z,78.43
2018-11-13T22:53:23.016Z,78.03
2018-11-13T22:55:50.254Z,77.83
2018-11-13T22:58:17.500Z,77.48
2018-11-13T23:00:46.807Z,77.71
2018-11-13T23:03:14.899Z,77.32
2018-11-13T23:05:43.031Z,77.87
2018-11-13T23:08:17.730Z,78.14
2018-11-13T23:10:50.779Z,77.94
2018-11-13T23:13:17.934Z,78.38
2018-11-13T23:15:45.137Z,78.32
2018-11-13T23:18:12.382Z,77.93
2018-11-13T23:20:39.642Z,77.75
2018-11-13T23:23:07.056Z,77.65
2018-11-13T23:25:34.753Z,77.53
2018-11-13T23:28:02.294Z,77.23
2018-11-13T23:30:29.600Z,77.39
2018-11-13T23:32:58.394Z,77.55
2018-11-13T23:35:25.586Z,77.77
2018-11-13T23:37:54.383Z,78.05
2018-11-13T23:40:22.890Z,77.47
2018-11-13T23:42:50.973Z,77.39
2018-11-13T23:45:19.195Z,77.38
2018-11-13T23:47:46.939Z,77.01
2018-11-13T23:50:14.258Z,76.68
2018-11-13T23:52:41.954Z,76.58
2018-11-13T23:55:10.775Z,76.85
2018-11-13T23:57:38.171Z,76.77
